Tatlayoko Lake, Canada
Current Conditions -  °F | °C
As of 2:00 PM on Sunday 21 Dec 2014 (Local Time) from CYWL Reporting Station
Broken Clouds Broken Clouds  
Wind Chill: 26°   Ceiling: 8000
Heat Index: 32°   Visibility: 15mi
Dew Point: 30°   Wind: 6mph
Humidity: 93%   Direction: 120°ESE
Pressure: 29.66"   Gusts: NA
Location:  51.65°N, 124.38°W
Report Text: CYWL 212200Z 12005KT 15SM BKN080 BKN120 M00/M01 A2966 RMK AC6AC1 SLP079
Loading
Personal Weather Stations






























Interactive Weather Map New forecast layout! Learn more

10-Day Weather Forecast

Advertisements
Track Severe Weather on mobile